createdAt,value
2023-02-19T06:32:23.359Z,91.72
2023-02-19T06:33:23.823Z,92.23
2023-02-19T06:34:25.474Z,92.85
2023-02-19T06:35:30.790Z,92.33
2023-02-19T06:36:25.728Z,93.36
2023-02-19T06:37:25.039Z,93.16
2023-02-19T06:38:26.074Z,93.16
2023-02-19T06:39:24.793Z,93.46
2023-02-19T06:40:24.642Z,93.26
2023-02-19T06:41:25.036Z,93.05
2023-02-19T06:42:27.178Z,93.05
2023-02-19T06:43:25.481Z,92.85
2023-02-19T06:44:26.730Z,93.10
2023-02-19T06:45:24.436Z,92.74
2023-02-19T06:46:29.819Z,92.85
2023-02-19T06:47:25.617Z,92.64
2023-02-19T06:48:25.760Z,92.33
2023-02-19T06:49:27.113Z,91.57
2023-02-19T06:50:27.038Z,91.31
2023-02-19T06:51:32.228Z,91.27
2023-02-19T06:52:25.265Z,91.16
2023-02-19T06:53:24.810Z,91.57
2023-02-19T06:54:25.873Z,91.06
2023-02-19T06:55:24.863Z,91.06
2023-02-19T06:56:24.144Z,90.95
2023-02-19T06:57:31.973Z,91.16
2023-02-19T06:58:27.596Z,91.27
2023-02-19T06:59:25.706Z,91.37
2023-02-19T07:00:24.252Z,91.78
2023-02-19T07:01:25.401Z,92.19
2023-02-19T07:02:24.305Z,92.23
2023-02-19T07:03:24.133Z,92.40
2023-02-19T07:04:24.109Z,92.54
2023-02-19T07:05:24.126Z,93.05
2023-02-19T07:06:25.287Z,92.33
2023-02-19T07:07:24.752Z,92.64
2023-02-19T07:08:24.035Z,92.54
2023-02-19T07:09:24.125Z,92.64
2023-02-19T07:10:24.126Z,92.80
2023-02-19T07:11:23.996Z,92.64
2023-02-19T07:12:25.822Z,92.60
2023-02-19T07:13:23.954Z,91.57
2023-02-19T07:14:35.465Z,92.13
2023-02-19T07:15:33.948Z,92.13
2023-02-19T07:16:35.187Z,91.78
2023-02-19T07:17:28.212Z,91.78
2023-02-19T07:20:33.863Z,91.37
2023-02-19T07:21:34.065Z,90.75
2023-02-19T07:22:33.859Z,91.16
2023-02-19T07:23:33.992Z,91.06
2023-02-19T07:24:45.175Z,90.65
2023-02-19T07:25:34.923Z,90.85
2023-02-19T07:26:36.265Z,90.65
2023-02-19T07:27:34.423Z,90.75
2023-02-19T07:28:48.142Z,90.24
2023-02-19T07:29:42.777Z,90.20
2023-02-19T07:31:04.489Z,90.20
2023-02-19T07:31:48.925Z,90.24
2023-02-19T07:33:34.439Z,90.34
2023-02-19T07:34:11.859Z,90.44
2023-02-19T07:34:50.956Z,90.61
2023-02-19T07:35:41.980Z,90.34
2023-02-19T07:36:41.026Z,90.81
2023-02-19T07:37:41.916Z,90.71
2023-02-19T07:38:41.064Z,90.65
2023-02-19T07:39:41.045Z,90.09
2023-02-19T07:40:41.996Z,90.40
2023-02-19T07:41:41.875Z,90.65
2023-02-19T07:42:41.360Z,91.27
2023-02-19T07:43:41.574Z,91.27
2023-02-19T07:44:41.113Z,91.27
2023-02-19T07:45:41.101Z,91.47
2023-02-19T07:46:41.655Z,91.37
2023-02-19T07:47:42.029Z,91.16
2023-02-19T07:48:41.741Z,91.37
2023-02-19T07:49:40.905Z,91.06
2023-02-19T07:50:42.833Z,91.99
2023-02-19T07:51:40.840Z,91.27
2023-02-19T07:52:40.836Z,90.44
2023-02-19T07:53:40.824Z,91.51
2023-02-19T07:54:41.437Z,90.55
2023-02-19T07:55:40.904Z,90.65
2023-02-19T07:56:40.817Z,90.75
2023-02-19T07:57:40.720Z,91.57
2023-02-19T07:58:41.554Z,91.41
2023-02-19T07:59:40.781Z,90.69
2023-02-19T08:00:40.840Z,91.31
2023-02-19T08:01:40.707Z,91.41
2023-02-19T08:02:41.300Z,91.41
2023-02-19T08:03:40.742Z,92.38
2023-02-19T08:04:40.801Z,92.38
2023-02-19T08:05:40.707Z,91.97
2023-02-19T08:06:40.697Z,92.23
2023-02-19T08:07:40.642Z,92.38
2023-02-19T08:08:40.621Z,91.51
2023-02-19T08:09:40.900Z,91.10
2023-02-19T08:10:40.798Z,91.86
2023-02-19T08:11:41.220Z,91.20
2023-02-19T08:12:40.624Z,91.31
2023-02-19T08:13:40.932Z,90.89
2023-02-19T08:14:40.702Z,90.38
2023-02-19T08:15:42.582Z,90.69
2023-02-19T08:16:43.214Z,90.65
2023-02-19T08:17:40.586Z,90.38
2023-02-19T08:18:47.848Z,90.80
2023-02-19T08:19:40.606Z,90.44
2023-02-19T08:20:41.113Z,90.28
2023-02-19T08:21:44.631Z,90.80
2023-02-19T08:23:01.979Z,90.89
2023-02-19T08:23:45.876Z,90.65
2023-02-19T08:28:55.568Z,90.65
2023-02-19T08:29:57.686Z,91.06
2023-02-19T08:31:34.645Z,90.55
2023-02-19T08:31:58.913Z,90.75
2023-02-19T08:33:05.158Z,90.14
2023-02-19T08:34:23.678Z,90.85
2023-02-19T08:37:08.597Z,90.65
2023-02-19T08:38:08.597Z,91.37
2023-02-19T08:39:08.553Z,91.06
2023-02-19T08:40:08.626Z,91.06
2023-02-19T08:41:08.753Z,90.65
2023-02-19T08:42:43.556Z,90.71
2023-02-19T08:43:10.157Z,91.37
2023-02-19T08:44:09.867Z,90.91
2023-02-19T08:45:09.640Z,90.65
2023-02-19T08:46:09.868Z,90.71
2023-02-19T08:47:09.628Z,90.56
2023-02-19T08:48:09.674Z,90.36
2023-02-19T08:49:09.600Z,90.56
2023-02-19T08:50:09.642Z,91.08
2023-02-19T08:51:09.821Z,91.28
2023-02-19T08:52:09.633Z,91.24
2023-02-19T08:53:09.613Z,91.08
2023-02-19T08:56:24.071Z,91.14
2023-02-19T08:57:24.402Z,90.83
2023-02-19T08:58:24.053Z,91.03
2023-02-19T08:59:25.163Z,91.24
2023-02-19T09:00:25.090Z,91.14
2023-02-19T09:01:25.315Z,91.44
2023-02-19T09:02:25.170Z,91.03
2023-02-19T09:03:25.090Z,91.44
2023-02-19T09:04:25.179Z,90.52
2023-02-19T09:05:25.144Z,91.24
2023-02-19T09:06:25.027Z,91.55
2023-02-19T09:07:25.125Z,91.35
2023-02-19T09:08:25.112Z,91.55
2023-02-19T09:09:25.236Z,90.93
2023-02-19T09:10:25.242Z,91.55
2023-02-19T09:11:25.622Z,91.35
2023-02-19T09:12:25.065Z,90.32
2023-02-19T09:13:24.985Z,91.08
2023-02-19T09:14:24.988Z,91.59
2023-02-19T09:15:58.983Z,91.80
2023-02-19T09:17:01.270Z,91.24
2023-02-19T09:17:25.551Z,91.14
2023-02-19T09:18:24.952Z,91.18
2023-02-19T09:19:57.469Z,91.03
2023-02-19T09:20:25.737Z,91.03
2023-02-19T09:21:25.326Z,91.49
2023-02-19T09:22:57.349Z,91.49
